Time;durP1;ratioP1;P1;durP2;ratioP2;P2;SDS_P1;SDS_P2;PMS_P1;PMS_P2;Temp;Humidity;BMP_temperature;BMP_pressure;BME280_temperature;BME280_humidity;BME280_pressure;Samples;Min_cycle;Max_cycle;Signal;HPM_P1;HPM_P2
2022/12/20 00:01:41;0.00;0.00;0.62;0.00;0.00;0.62;2.90;2.03;;;20.40;22.70;;;;;;2268538;61;20350;-66
2022/12/20 00:04:26;0.00;0.00;0.62;0.00;0.00;0.62;2.90;2.10;;;20.40;22.70;;;;;;2266913;61;20418;-65
2022/12/20 00:07:12;0.00;0.00;0.62;0.00;0.00;0.62;2.40;1.90;;;20.40;22.70;;;;;;2268476;61;20432;-64
2022/12/20 00:09:57;0.00;0.00;0.62;0.00;0.00;0.62;2.80;2.07;;;20.40;22.70;;;;;;2268502;61;20886;-66
2022/12/20 00:12:41;0.00;0.00;0.62;0.00;0.00;0.62;2.03;1.70;;;20.40;22.70;;;;;;2267656;61;20379;-64
2022/12/20 00:15:26;0.00;0.00;0.62;0.00;0.00;0.62;3.10;2.27;;;20.40;22.70;;;;;;2268510;61;20379;-65
2022/12/20 00:18:11;0.00;0.00;0.62;0.00;0.00;0.62;3.00;2.40;;;20.40;22.70;;;;;;2268109;61;20429;-64
2022/12/20 00:20:57;0.00;0.00;0.62;0.00;0.00;0.62;3.07;2.20;;;20.40;22.80;;;;;;2268141;61;20413;-69
2022/12/20 00:23:43;0.00;0.00;0.62;0.00;0.00;0.62;3.30;2.57;;;20.40;22.80;;;;;;2304831;57;20442;-68
2022/12/20 00:26:31;0.00;0.00;0.62;0.00;0.00;0.62;2.30;2.03;;;20.40;22.80;;;;;;2263388;61;20400;-66
2022/12/20 00:29:16;0.00;0.00;0.62;0.00;0.00;0.62;2.67;2.00;;;20.40;22.80;;;;;;2263983;61;20880;-68
2022/12/20 00:32:01;0.00;0.00;0.62;0.00;0.00;0.62;2.20;1.80;;;20.40;22.80;;;;;;2264364;61;20427;-68
2022/12/20 00:34:45;0.00;0.00;0.62;0.00;0.00;0.62;2.60;2.10;;;20.40;22.80;;;;;;2263360;61;20434;-68
2022/12/20 00:37:30;0.00;0.00;0.62;0.00;0.00;0.62;2.50;1.97;;;20.40;22.90;;;;;;2264337;61;20391;-68
2022/12/20 00:40:17;0.00;0.00;0.62;0.00;0.00;0.62;2.23;1.83;;;20.40;22.90;;;;;;2264217;61;20368;-68
2022/12/20 00:43:02;0.00;0.00;0.62;0.00;0.00;0.62;2.70;1.90;;;20.40;22.90;;;;;;2263328;61;20368;-69
2022/12/20 00:45:47;0.00;0.00;0.62;0.00;0.00;0.62;2.57;2.07;;;20.40;22.90;;;;;;2261335;61;20361;-66
2022/12/20 00:48:32;0.00;0.00;0.62;0.00;0.00;0.62;2.70;1.90;;;20.40;22.90;;;;;;2263386;61;20364;-67
2022/12/20 00:51:20;0.00;0.00;0.62;0.00;0.00;0.62;2.37;1.80;;;20.40;22.90;;;;;;2264354;61;20360;-65
2022/12/20 00:54:05;0.00;0.00;0.62;0.00;0.00;0.62;2.73;2.10;;;20.40;22.90;;;;;;2263657;61;20468;-70
2022/12/20 00:56:51;0.00;0.00;0.62;0.00;0.00;0.62;2.43;1.80;;;20.40;22.90;;;;;;2263461;61;20848;-67
2022/12/20 00:59:35;0.00;0.00;0.62;0.00;0.00;0.62;2.37;1.90;;;20.40;22.90;;;;;;2264506;61;20419;-65
2022/12/20 01:02:20;0.00;0.00;0.62;0.00;0.00;0.62;2.60;2.00;;;20.50;23.00;;;;;;2263640;61;20399;-66
2022/12/20 01:05:07;0.00;0.00;0.62;0.00;0.00;0.62;2.70;2.00;;;20.40;22.90;;;;;;2263961;61;20380;-64
2022/12/20 01:07:52;0.00;0.00;0.62;0.00;0.00;0.62;2.90;2.50;;;20.50;23.00;;;;;;2261133;61;20418;-68
2022/12/20 01:10:37;0.00;0.00;0.62;0.00;0.00;0.62;2.80;1.90;;;20.50;23.00;;;;;;2263484;61;20363;-66
2022/12/20 01:13:23;0.00;0.00;0.62;0.00;0.00;0.62;2.70;1.90;;;20.50;23.00;;;;;;2264160;61;20756;-66
2022/12/20 01:16:12;0.00;0.00;0.62;0.00;0.00;0.62;2.57;2.07;;;20.50;23.00;;;;;;2264234;61;20371;-65
2022/12/20 01:18:57;0.00;0.00;0.62;0.00;0.00;0.62;2.97;2.30;;;20.50;23.00;;;;;;2263327;61;20388;-68
2022/12/20 01:21:46;0.00;0.00;0.62;0.00;0.00;0.62;2.07;1.80;;;20.50;23.00;;;;;;2264227;61;20364;-68
2022/12/20 01:24:31;0.00;0.00;0.62;0.00;0.00;0.62;2.30;1.83;;;20.50;23.60;;;;;;2260956;61;20384;-64
2022/12/20 01:27:16;0.00;0.00;0.62;0.00;0.00;0.62;2.43;1.87;;;20.50;23.00;;;;;;2264242;61;20415;-61
2022/12/20 01:30:02;0.00;0.00;0.62;0.00;0.00;0.62;2.60;2.00;;;20.50;23.60;;;;;;2265122;61;20856;-68
2022/12/20 01:32:47;0.00;0.00;0.62;0.00;0.00;0.62;2.33;1.90;;;20.50;23.10;;;;;;2260900;61;20429;-63
2022/12/20 01:35:31;0.00;0.00;0.62;0.00;0.00;0.62;2.70;2.10;;;20.50;23.10;;;;;;2265184;61;20387;-62
2022/12/20 01:38:16;0.00;0.00;0.62;0.00;0.00;0.62;2.03;1.57;;;20.50;23.10;;;;;;2264928;61;20422;-62
2022/12/20 01:41:02;0.00;0.00;0.62;0.00;0.00;0.62;2.80;2.03;;;20.60;23.70;;;;;;2264385;61;20383;-65
2022/12/20 01:43:51;0.00;0.00;0.62;0.00;0.00;0.62;3.70;2.67;;;20.50;23.20;;;;;;2264969;61;20482;-64
2022/12/20 01:46:38;0.00;0.00;0.62;0.00;0.00;0.62;3.33;2.97;;;20.50;23.20;;;;;;2264795;61;20428;-64
2022/12/20 01:49:28;0.00;0.00;0.62;0.00;0.00;0.62;5.50;3.97;;;20.50;23.20;;;;;;2261320;61;20348;-63
2022/12/20 01:52:17;0.00;0.00;0.62;0.00;0.00;0.62;5.50;4.30;;;20.50;23.20;;;;;;2264797;61;20359;-62
2022/12/20 01:55:09;0.00;0.00;0.62;0.00;0.00;0.62;4.70;4.03;;;20.50;23.20;;;;;;2264234;61;20376;-62
2022/12/20 01:58:00;0.00;0.00;0.62;0.00;0.00;0.62;4.40;4.00;;;20.40;23.10;;;;;;2264883;61;20434;-64
2022/12/20 02:00:46;0.00;0.00;0.62;0.00;0.00;0.62;5.57;4.63;;;20.40;23.10;;;;;;2261724;61;20764;-62
2022/12/20 02:03:32;0.00;0.00;0.62;0.00;0.00;0.62;6.23;4.83;;;20.40;23.20;;;;;;2260991;61;20491;-62
2022/12/20 02:06:20;0.00;0.00;0.62;0.00;0.00;0.62;6.53;5.53;;;20.40;23.20;;;;;;2264821;61;20360;-62
2022/12/20 02:09:07;0.00;0.00;0.62;0.00;0.00;0.62;7.13;4.87;;;20.30;23.20;;;;;;2264293;61;20502;-64
2022/12/20 02:12:08;0.00;0.00;0.62;0.00;0.00;0.62;5.90;5.27;;;20.30;23.30;;;;;;2264545;61;20375;-64
2022/12/20 02:15:08;0.00;0.00;0.62;0.00;0.00;0.62;6.30;5.37;;;20.20;23.20;;;;;;2264766;61;20415;-62
2022/12/20 02:18:15;0.00;0.00;0.62;0.00;0.00;0.62;7.27;6.10;;;20.20;23.50;;;;;;2260897;61;20384;-63
2022/12/20 02:21:25;0.00;0.00;0.62;0.00;0.00;0.62;8.67;5.87;;;20.20;23.30;;;;;;2261546;61;20396;-63
2022/12/20 02:24:59;0.00;0.00;0.62;0.00;0.00;0.62;6.10;5.40;;;20.20;23.40;;;;;;2264170;61;20391;-63
2022/12/20 02:27:57;0.00;0.00;0.62;0.00;0.00;0.62;4.77;4.23;;;20.10;23.40;;;;;;2262416;61;20367;-65
2022/12/20 02:30:46;0.00;0.00;0.62;0.00;0.00;0.62;5.20;4.60;;;20.10;23.50;;;;;;2261739;61;20363;-64
2022/12/20 02:33:31;0.00;0.00;0.62;0.00;0.00;0.62;5.23;4.23;;;20.10;23.50;;;;;;2261066;61;20368;-61
2022/12/20 02:36:16;0.00;0.00;0.62;0.00;0.00;0.62;5.93;4.70;;;20.10;23.50;;;;;;2264719;61;20411;-63
2022/12/20 02:39:03;0.00;0.00;0.62;0.00;0.00;0.62;5.13;4.60;;;20.10;23.60;;;;;;2261177;61;20392;-64
2022/12/20 02:41:52;0.00;0.00;0.62;0.00;0.00;0.62;4.87;4.40;;;20.00;23.50;;;;;;2264136;61;20811;-64
2022/12/20 02:47:54;0.00;0.00;0.62;0.00;0.00;0.62;5.27;4.00;;;20.10;23.60;;;;;;2260848;61;20368;-62
2022/12/20 02:50:46;0.00;0.00;0.62;0.00;0.00;0.62;4.37;3.70;;;20.10;23.60;;;;;;2261603;61;20746;-63
2022/12/20 02:53:31;0.00;0.00;0.62;0.00;0.00;0.62;5.27;4.23;;;20.10;23.70;;;;;;2263898;61;20348;-63
2022/12/20 02:56:29;0.00;0.00;0.62;0.00;0.00;0.62;5.40;4.10;;;20.10;23.70;;;;;;2264622;61;20396;-63
2022/12/20 02:59:20;0.00;0.00;0.62;0.00;0.00;0.62;4.90;4.40;;;20.00;23.70;;;;;;2261443;61;20456;-63
2022/12/20 03:02:06;0.00;0.00;0.62;0.00;0.00;0.62;5.23;4.73;;;20.00;23.70;;;;;;2263861;61;20364;-63
2022/12/20 03:04:53;0.00;0.00;0.62;0.00;0.00;0.62;6.40;4.13;;;20.00;23.80;;;;;;2264318;61;20427;-65
2022/12/20 03:07:38;0.00;0.00;0.62;0.00;0.00;0.62;5.40;4.00;;;20.00;23.70;;;;;;2261590;61;20414;-64
2022/12/20 03:10:23;0.00;0.00;0.62;0.00;0.00;0.62;3.87;3.40;;;20.00;24.30;;;;;;2263695;61;20363;-62
2022/12/20 03:13:08;0.00;0.00;0.62;0.00;0.00;0.62;5.90;4.40;;;20.00;23.70;;;;;;2264564;61;20349;-63
2022/12/20 03:15:55;0.00;0.00;0.62;0.00;0.00;0.62;5.10;3.90;;;20.00;23.70;;;;;;2260931;61;20367;-61
2022/12/20 03:18:41;0.00;0.00;0.62;0.00;0.00;0.62;4.27;3.87;;;20.00;23.70;;;;;;2261147;61;20376;-63
2022/12/20 03:21:27;0.00;0.00;0.62;0.00;0.00;0.62;5.50;4.47;;;20.00;23.80;;;;;;2264673;61;20864;-64
2022/12/20 03:24:12;0.00;0.00;0.62;0.00;0.00;0.62;4.37;3.77;;;20.00;23.80;;;;;;2260690;61;20441;-63
2022/12/20 03:26:58;0.00;0.00;0.62;0.00;0.00;0.62;3.80;3.40;;;20.00;23.80;;;;;;2261533;61;20411;-62
2022/12/20 03:29:44;0.00;0.00;0.62;0.00;0.00;0.62;4.60;3.40;;;20.00;23.80;;;;;;2264645;61;20359;-64
2022/12/20 03:32:30;0.00;0.00;0.62;0.00;0.00;0.62;4.50;4.10;;;20.10;23.90;;;;;;2260772;61;20364;-63
2022/12/20 03:35:15;0.00;0.00;0.62;0.00;0.00;0.62;4.87;4.10;;;20.10;23.90;;;;;;2264616;61;20379;-63
2022/12/20 03:38:01;0.00;0.00;0.62;0.00;0.00;0.62;4.70;3.90;;;20.10;23.90;;;;;;2264288;61;20896;-64
2022/12/20 03:40:46;0.00;0.00;0.62;0.00;0.00;0.62;4.53;3.90;;;20.10;23.90;;;;;;2261200;61;20913;-62
2022/12/20 03:43:34;0.00;0.00;0.62;0.00;0.00;0.62;4.07;3.50;;;20.10;23.90;;;;;;2261256;61;20492;-64
2022/12/20 03:46:20;0.00;0.00;0.62;0.00;0.00;0.62;4.27;3.60;;;20.10;24.00;;;;;;2260576;61;20384;-62
2022/12/20 03:49:04;0.00;0.00;0.62;0.00;0.00;0.62;5.00;3.83;;;20.10;24.00;;;;;;2261325;61;20344;-62
2022/12/20 03:51:50;0.00;0.00;0.62;0.00;0.00;0.62;4.13;3.30;;;20.10;24.00;;;;;;2261255;61;20896;-63
2022/12/20 03:54:36;0.00;0.00;0.62;0.00;0.00;0.62;4.53;3.40;;;20.10;23.90;;;;;;2263359;61;20384;-63
2022/12/20 03:57:33;0.00;0.00;0.62;0.00;0.00;0.62;5.33;3.80;;;20.20;24.50;;;;;;2264070;61;20418;-62
2022/12/20 04:00:19;0.00;0.00;0.62;0.00;0.00;0.62;3.67;3.03;;;20.10;23.90;;;;;;2263647;61;20367;-63
2022/12/20 04:03:06;0.00;0.00;0.62;0.00;0.00;0.62;4.53;3.43;;;20.20;24.00;;;;;;2260900;61;20372;-63
2022/12/20 04:05:51;0.00;0.00;0.62;0.00;0.00;0.62;3.67;3.03;;;20.20;23.90;;;;;;2261483;61;20860;-64
2022/12/20 04:08:36;0.00;0.00;0.62;0.00;0.00;0.62;4.03;3.53;;;20.20;23.90;;;;;;2263924;61;20471;-63
2022/12/20 04:11:23;0.00;0.00;0.62;0.00;0.00;0.62;5.10;3.40;;;20.20;23.90;;;;;;2264069;61;20415;-63
2022/12/20 04:14:23;0.00;0.00;0.62;0.00;0.00;0.62;3.37;3.07;;;20.20;24.00;;;;;;2261317;61;20387;-63
2022/12/20 04:17:08;0.00;0.00;0.62;0.00;0.00;0.62;4.90;3.87;;;20.20;24.00;;;;;;2260705;61;20419;-65
2022/12/20 04:19:54;0.00;0.00;0.62;0.00;0.00;0.62;3.93;3.30;;;20.20;24.00;;;;;;2264027;61;20371;-64
2022/12/20 04:22:39;0.00;0.00;0.62;0.00;0.00;0.62;4.47;3.77;;;20.20;24.00;;;;;;2260766;61;20376;-64
2022/12/20 04:25:24;0.00;0.00;0.62;0.00;0.00;0.62;5.20;3.60;;;20.20;24.00;;;;;;2263916;61;20383;-62
2022/12/20 04:28:10;0.00;0.00;0.62;0.00;0.00;0.62;5.67;4.07;;;20.20;24.00;;;;;;2261169;61;20414;-62
2022/12/20 04:30:56;0.00;0.00;0.62;0.00;0.00;0.62;4.60;3.33;;;20.20;24.00;;;;;;2260464;61;20372;-65
2022/12/20 04:33:44;0.00;0.00;0.62;0.00;0.00;0.62;4.73;4.23;;;20.20;24.00;;;;;;2261035;61;20423;-64
2022/12/20 04:36:29;0.00;0.00;0.62;0.00;0.00;0.62;3.70;3.40;;;20.20;24.00;;;;;;2261222;61;20399;-64
2022/12/20 04:39:16;0.00;0.00;0.62;0.00;0.00;0.62;5.53;3.90;;;20.20;24.00;;;;;;2260578;61;20795;-62
2022/12/20 04:42:21;0.00;0.00;0.62;0.00;0.00;0.62;4.63;4.17;;;20.30;24.10;;;;;;2264541;61;20364;-64
2022/12/20 04:45:09;0.00;0.00;0.62;0.00;0.00;0.62;4.30;3.50;;;20.20;24.00;;;;;;2260680;61;20394;-63
2022/12/20 04:47:54;0.00;0.00;0.62;0.00;0.00;0.62;4.37;3.53;;;20.20;24.00;;;;;;2264266;61;20368;-62
2022/12/20 04:50:47;0.00;0.00;0.62;0.00;0.00;0.62;3.67;3.17;;;20.20;24.00;;;;;;2261330;61;20376;-62
2022/12/20 04:53:47;0.00;0.00;0.62;0.00;0.00;0.62;5.23;3.83;;;20.20;24.00;;;;;;2260276;61;20368;-62
2022/12/20 04:56:43;0.00;0.00;0.62;0.00;0.00;0.62;4.20;3.30;;;20.20;24.00;;;;;;2261095;61;20400;-62
2022/12/20 04:59:32;0.00;0.00;0.62;0.00;0.00;0.62;4.63;3.67;;;20.20;24.00;;;;;;2263077;61;20384;-62
2022/12/20 05:02:18;0.00;0.00;0.62;0.00;0.00;0.62;4.53;3.87;;;20.20;24.00;;;;;;2260833;61;20752;-64
2022/12/20 05:05:18;0.00;0.00;0.62;0.00;0.00;0.62;4.80;3.87;;;20.20;24.00;;;;;;2261234;61;20418;-64
2022/12/20 05:08:09;0.00;0.00;0.62;0.00;0.00;0.62;4.70;4.03;;;20.20;24.00;;;;;;2260318;61;20359;-64
2022/12/20 05:10:55;0.00;0.00;0.62;0.00;0.00;0.62;4.67;4.17;;;20.20;24.00;;;;;;2263995;61;20367;-62
2022/12/20 05:13:40;0.00;0.00;0.62;0.00;0.00;0.62;6.20;4.90;;;20.20;24.10;;;;;;2260710;61;20422;-63
2022/12/20 05:16:25;0.00;0.00;0.62;0.00;0.00;0.62;7.40;5.07;;;20.20;24.10;;;;;;2260669;61;20876;-64
2022/12/20 05:19:11;0.00;0.00;0.62;0.00;0.00;0.62;5.30;4.80;;;20.20;24.10;;;;;;2264476;61;20388;-65
2022/12/20 05:28:23;0.00;0.00;0.62;0.00;0.00;0.62;5.10;4.17;;;20.10;24.20;;;;;;2260961;61;20396;-64
2022/12/20 05:31:09;0.00;0.00;0.62;0.00;0.00;0.62;5.20;4.47;;;20.10;24.20;;;;;;2260502;61;20363;-64
2022/12/20 05:33:54;0.00;0.00;0.62;0.00;0.00;0.62;5.07;4.57;;;20.10;24.20;;;;;;2263743;61;20419;-63
2022/12/20 05:36:42;0.00;0.00;0.62;0.00;0.00;0.62;5.93;4.07;;;20.10;24.20;;;;;;2260567;61;20494;-63
2022/12/20 05:39:27;0.00;0.00;0.62;0.00;0.00;0.62;5.00;4.50;;;20.10;24.20;;;;;;2260902;61;20923;-64
2022/12/20 05:42:15;0.00;0.00;0.62;0.00;0.00;0.62;4.83;4.33;;;20.10;24.20;;;;;;2260917;61;20363;-64
2022/12/20 05:45:00;0.00;0.00;0.62;0.00;0.00;0.62;5.27;4.77;;;20.10;24.20;;;;;;2260326;61;20538;-65
2022/12/20 05:47:47;0.00;0.00;0.62;0.00;0.00;0.62;5.93;4.77;;;20.10;24.30;;;;;;2263787;61;20451;-63
2022/12/20 05:50:34;0.00;0.00;0.62;0.00;0.00;0.62;6.20;4.57;;;20.10;24.30;;;;;;2260926;61;20460;-62
2022/12/20 05:53:43;0.00;0.00;0.62;0.00;0.00;0.62;9.87;6.03;;;20.10;24.30;;;;;;2261111;61;20407;-62
2022/12/20 05:56:28;0.00;0.00;0.62;0.00;0.00;0.62;5.13;3.97;;;20.10;24.30;;;;;;2261083;61;20371;-62
2022/12/20 05:59:13;0.00;0.00;0.62;0.00;0.00;0.62;4.10;3.57;;;20.00;24.20;;;;;;2260257;61;20395;-62
2022/12/20 06:01:59;0.00;0.00;0.62;0.00;0.00;0.62;4.83;4.03;;;20.10;24.30;;;;;;2260940;61;20766;-64
2022/12/20 06:04:44;0.00;0.00;0.62;0.00;0.00;0.62;5.20;3.93;;;20.10;24.30;;;;;;2259971;61;20498;-61
2022/12/20 06:07:35;0.00;0.00;0.62;0.00;0.00;0.62;3.93;3.50;;;20.10;24.40;;;;;;2263184;61;20363;-62
2022/12/20 06:10:23;0.00;0.00;0.62;0.00;0.00;0.62;6.17;4.13;;;20.10;24.30;;;;;;2260984;61;20403;-64
2022/12/20 06:13:12;0.00;0.00;0.62;0.00;0.00;0.62;4.13;3.50;;;20.10;24.30;;;;;;2264156;61;20900;-62
2022/12/20 06:15:59;0.00;0.00;0.62;0.00;0.00;0.62;4.37;3.70;;;20.10;24.30;;;;;;2264035;61;20360;-63
2022/12/20 06:18:44;0.00;0.00;0.62;0.00;0.00;0.62;5.70;4.40;;;20.10;24.30;;;;;;2261592;61;20778;-62
2022/12/20 06:21:30;0.00;0.00;0.62;0.00;0.00;0.62;5.10;4.37;;;20.10;24.30;;;;;;2263941;61;20364;-62
2022/12/20 06:24:16;0.00;0.00;0.62;0.00;0.00;0.62;5.03;4.53;;;20.10;24.30;;;;;;2258923;61;20970;-64
2022/12/20 06:27:05;0.00;0.00;0.62;0.00;0.00;0.62;6.77;4.93;;;20.10;24.90;;;;;;2264218;61;20360;-63
2022/12/20 06:29:53;0.00;0.00;0.62;0.00;0.00;0.62;5.30;3.87;;;20.10;24.40;;;;;;2260980;61;20468;-63
2022/12/20 06:32:40;0.00;0.00;0.62;0.00;0.00;0.62;7.33;6.50;;;20.10;24.40;;;;;;2261401;61;20379;-64
2022/12/20 06:35:27;0.00;0.00;0.62;0.00;0.00;0.62;5.17;4.60;;;20.00;24.50;;;;;;2261420;61;20392;-63
2022/12/20 06:38:13;0.00;0.00;0.62;0.00;0.00;0.62;5.10;4.60;;;20.00;24.50;;;;;;2261276;61;20408;-65
2022/12/20 06:40:58;0.00;0.00;0.62;0.00;0.00;0.62;5.30;4.00;;;20.00;24.50;;;;;;2261745;61;20371;-64
2022/12/20 06:43:44;0.00;0.00;0.62;0.00;0.00;0.62;6.90;5.20;;;20.00;24.50;;;;;;2260726;61;20395;-63
2022/12/20 06:46:29;0.00;0.00;0.62;0.00;0.00;0.62;6.20;4.57;;;20.00;24.50;;;;;;2261652;61;20352;-63
2022/12/20 06:49:15;0.00;0.00;0.62;0.00;0.00;0.62;6.87;5.73;;;20.00;24.60;;;;;;2261625;61;20360;-63
2022/12/20 06:52:00;0.00;0.00;0.62;0.00;0.00;0.62;4.70;4.20;;;20.00;24.60;;;;;;2263500;61;20774;-63
2022/12/20 06:55:00;0.00;0.00;0.62;0.00;0.00;0.62;5.60;5.10;;;20.00;24.60;;;;;;2261886;61;20379;-64
2022/12/20 06:57:46;0.00;0.00;0.62;0.00;0.00;0.62;5.30;4.80;;;20.00;24.60;;;;;;2261412;61;20431;-64
2022/12/20 07:00:35;0.00;0.00;0.62;0.00;0.00;0.62;4.60;4.20;;;20.00;24.60;;;;;;2261280;61;20390;-63
2022/12/20 07:03:19;0.00;0.00;0.62;0.00;0.00;0.62;5.40;4.30;;;20.00;24.70;;;;;;2264753;61;20357;-63
2022/12/20 07:06:04;0.00;0.00;0.62;0.00;0.00;0.62;6.27;5.07;;;20.00;24.60;;;;;;2264057;61;20440;-62
2022/12/20 07:08:49;0.00;0.00;0.62;0.00;0.00;0.62;6.13;5.10;;;20.00;24.60;;;;;;2264736;61;20365;-64
2022/12/20 07:11:33;0.00;0.00;0.62;0.00;0.00;0.62;5.87;5.10;;;20.00;24.70;;;;;;2264606;61;20748;-63
2022/12/20 07:14:18;0.00;0.00;0.62;0.00;0.00;0.62;6.70;5.57;;;20.00;24.70;;;;;;2263984;61;20476;-63
2022/12/20 07:17:06;0.00;0.00;0.62;0.00;0.00;0.62;10.23;6.80;;;20.00;24.80;;;;;;2264496;61;20348;-64
2022/12/20 07:19:51;0.00;0.00;0.62;0.00;0.00;0.62;5.60;5.07;;;20.00;24.90;;;;;;2264536;61;20430;-63
2022/12/20 07:22:35;0.00;0.00;0.62;0.00;0.00;0.62;9.50;6.80;;;19.90;24.80;;;;;;2264155;61;20407;-63
2022/12/20 07:25:20;0.00;0.00;0.62;0.00;0.00;0.62;6.47;5.63;;;20.00;24.90;;;;;;2264610;61;20783;-63
2022/12/20 07:28:05;0.00;0.00;0.62;0.00;0.00;0.62;6.80;5.47;;;20.00;24.90;;;;;;2263833;61;20391;-62
2022/12/20 07:30:50;0.00;0.00;0.62;0.00;0.00;0.62;7.30;5.50;;;19.90;24.80;;;;;;2264635;61;20411;-61
2022/12/20 07:33:37;0.00;0.00;0.62;0.00;0.00;0.62;6.60;5.70;;;19.90;24.90;;;;;;2264431;61;20376;-64
2022/12/20 07:36:22;0.00;0.00;0.62;0.00;0.00;0.62;7.83;5.87;;;19.90;25.00;;;;;;2264079;61;20751;-62
2022/12/20 07:39:07;0.00;0.00;0.62;0.00;0.00;0.62;7.27;5.57;;;19.90;25.00;;;;;;2264495;61;20963;-63
2022/12/20 07:41:53;0.00;0.00;0.62;0.00;0.00;0.62;7.83;4.90;;;19.90;25.00;;;;;;2264354;61;20411;-62
2022/12/20 07:44:40;0.00;0.00;0.62;0.00;0.00;0.62;6.80;5.23;;;19.90;25.00;;;;;;2260753;61;21030;-64
2022/12/20 07:47:24;0.00;0.00;0.62;0.00;0.00;0.62;5.23;4.70;;;19.90;25.20;;;;;;2264758;61;20435;-62
2022/12/20 07:50:11;0.00;0.00;0.62;0.00;0.00;0.62;7.17;6.40;;;19.90;25.20;;;;;;2264040;61;20368;-63
2022/12/20 07:52:57;0.00;0.00;0.62;0.00;0.00;0.62;6.07;4.50;;;19.90;25.20;;;;;;2264489;61;20372;-62
2022/12/20 07:55:42;0.00;0.00;0.62;0.00;0.00;0.62;4.80;4.30;;;19.80;25.20;;;;;;2264571;61;20903;-64
2022/12/20 07:58:29;0.00;0.00;0.62;0.00;0.00;0.62;7.30;5.23;;;19.80;25.20;;;;;;2263657;61;20799;-64
2022/12/20 08:01:14;0.00;0.00;0.62;0.00;0.00;0.62;7.33;5.00;;;19.80;25.20;;;;;;2264606;61;20364;-64
2022/12/20 08:04:04;0.00;0.00;0.62;0.00;0.00;0.62;5.33;4.57;;;19.80;25.30;;;;;;2264258;61;20384;-62
2022/12/20 08:06:54;0.00;0.00;0.62;0.00;0.00;0.62;5.00;4.50;;;19.90;25.40;;;;;;2264079;61;20838;-63
2022/12/20 08:09:42;0.00;0.00;0.62;0.00;0.00;0.62;5.20;4.20;;;19.80;25.30;;;;;;2264686;61;20364;-62
2022/12/20 08:12:29;0.00;0.00;0.62;0.00;0.00;0.62;5.93;4.20;;;19.90;25.40;;;;;;2260525;61;20359;-64
2022/12/20 08:15:14;0.00;0.00;0.62;0.00;0.00;0.62;5.67;4.50;;;19.90;25.30;;;;;;2264435;61;20384;-62
2022/12/20 08:17:58;0.00;0.00;0.62;0.00;0.00;0.62;5.93;4.20;;;19.90;25.40;;;;;;2264433;61;20384;-63
2022/12/20 08:20:43;0.00;0.00;0.62;0.00;0.00;0.62;4.97;4.00;;;19.90;25.40;;;;;;2263836;61;20798;-64
2022/12/20 08:23:29;0.00;0.00;0.62;0.00;0.00;0.62;5.20;4.07;;;19.90;25.30;;;;;;2264448;61;20392;-64
2022/12/20 08:26:13;0.00;0.00;0.62;0.00;0.00;0.62;4.80;3.77;;;19.90;25.30;;;;;;2264188;61;20425;-65
2022/12/20 08:28:58;0.00;0.00;0.62;0.00;0.00;0.62;7.33;4.63;;;19.90;25.30;;;;;;2263906;61;20367;-63
2022/12/20 08:31:43;0.00;0.00;0.62;0.00;0.00;0.62;4.80;4.10;;;19.90;25.40;;;;;;2264507;61;20360;-61
2022/12/20 08:34:27;0.00;0.00;0.62;0.00;0.00;0.62;4.23;3.50;;;19.90;25.30;;;;;;2263807;61;20420;-64
2022/12/20 08:37:12;0.00;0.00;0.62;0.00;0.00;0.62;5.43;3.40;;;19.90;25.30;;;;;;2264538;61;20391;-64
2022/12/20 08:39:59;0.00;0.00;0.62;0.00;0.00;0.62;5.03;3.50;;;19.90;25.30;;;;;;2264477;61;20352;-62
2022/12/20 08:42:44;0.00;0.00;0.62;0.00;0.00;0.62;4.20;3.20;;;19.90;25.30;;;;;;2263855;61;20918;-64
2022/12/20 08:45:29;0.00;0.00;0.62;0.00;0.00;0.62;4.40;3.60;;;19.90;25.30;;;;;;2264400;61;20442;-64
2022/12/20 08:48:13;0.00;0.00;0.62;0.00;0.00;0.62;5.97;5.27;;;19.90;25.30;;;;;;2264137;61;20437;-63
2022/12/20 08:51:00;0.00;0.00;0.62;0.00;0.00;0.62;6.70;5.90;;;19.90;25.40;;;;;;2263339;61;20360;-62
2022/12/20 08:53:45;0.00;0.00;0.62;0.00;0.00;0.62;8.30;6.60;;;19.90;25.70;;;;;;2264222;61;20470;-62
2022/12/20 08:56:31;0.00;0.00;0.62;0.00;0.00;0.62;8.60;6.83;;;19.80;25.80;;;;;;2263903;61;20399;-61
2022/12/20 08:59:16;0.00;0.00;0.62;0.00;0.00;0.62;6.50;5.90;;;19.70;26.00;;;;;;2264004;61;20399;-66
2022/12/20 09:02:00;0.00;0.00;0.62;0.00;0.00;0.62;8.40;7.33;;;19.60;26.10;;;;;;2264091;61;20368;-63
2022/12/20 09:04:46;0.00;0.00;0.62;0.00;0.00;0.62;7.57;6.77;;;19.50;26.30;;;;;;2263329;61;20383;-68
2022/12/20 09:07:30;0.00;0.00;0.62;0.00;0.00;0.62;10.37;7.17;;;19.40;26.20;;;;;;2264050;61;20500;-68
2022/12/20 09:10:15;0.00;0.00;0.62;0.00;0.00;0.62;8.50;6.20;;;19.30;26.50;;;;;;2264420;61;20378;-66
2022/12/20 09:13:01;0.00;0.00;0.62;0.00;0.00;0.62;10.03;7.00;;;19.20;26.60;;;;;;2263321;61;20403;-66
2022/12/20 09:15:45;0.00;0.00;0.62;0.00;0.00;0.62;6.83;6.00;;;19.10;26.70;;;;;;2264093;61;20828;-64
2022/12/20 09:18:31;0.00;0.00;0.62;0.00;0.00;0.62;8.73;6.37;;;19.00;26.80;;;;;;2263546;61;20392;-64
2022/12/20 09:21:16;0.00;0.00;0.62;0.00;0.00;0.62;8.17;7.37;;;18.90;26.90;;;;;;2260694;61;20363;-67
2022/12/20 09:24:01;0.00;0.00;0.62;0.00;0.00;0.62;7.53;6.73;;;18.80;27.00;;;;;;2263899;61;20388;-67
2022/12/20 09:26:45;0.00;0.00;0.62;0.00;0.00;0.62;9.40;7.03;;;18.80;27.20;;;;;;2263332;61;20816;-66
2022/12/20 09:29:31;0.00;0.00;0.62;0.00;0.00;0.62;8.00;7.07;;;18.70;27.30;;;;;;2265801;61;20502;-66
2022/12/20 09:32:16;0.00;0.00;0.62;0.00;0.00;0.62;10.80;7.37;;;18.70;28.00;;;;;;2267202;61;20899;-66
2022/12/20 09:35:00;0.00;0.00;0.62;0.00;0.00;0.62;8.17;7.30;;;18.60;27.40;;;;;;2267337;61;20383;-66
2022/12/20 09:37:45;0.00;0.00;0.62;0.00;0.00;0.62;7.83;6.73;;;18.60;28.00;;;;;;2268317;61;20371;-62
2022/12/20 09:40:31;0.00;0.00;0.62;0.00;0.00;0.62;8.30;6.40;;;18.50;27.60;;;;;;2264628;61;20430;-63
2022/12/20 09:43:18;0.00;0.00;0.62;0.00;0.00;0.62;7.73;6.70;;;18.50;27.70;;;;;;2268063;61;20823;-65
2022/12/20 09:46:04;0.00;0.00;0.62;0.00;0.00;0.62;8.43;5.73;;;18.40;27.70;;;;;;2268520;61;20813;-66
2022/12/20 09:48:49;0.00;0.00;0.62;0.00;0.00;0.62;9.20;6.60;;;18.40;27.80;;;;;;2268331;61;20831;-64
2022/12/20 09:52:06;0.00;0.00;0.62;0.00;0.00;0.62;7.77;5.63;;;18.30;27.80;;;;;;2268925;61;20452;-65
2022/12/20 09:55:03;0.00;0.00;0.62;0.00;0.00;0.62;9.10;7.10;;;18.30;28.30;;;;;;2268859;61;20382;-63
2022/12/20 09:58:05;0.00;0.00;0.62;0.00;0.00;0.62;9.93;6.87;;;18.20;27.90;;;;;;2268078;61;20401;-64
2022/12/20 10:00:50;0.00;0.00;0.62;0.00;0.00;0.62;8.03;7.23;;;18.20;28.00;;;;;;2269094;61;20350;-65
2022/12/20 10:03:36;0.00;0.00;0.62;0.00;0.00;0.62;7.37;6.17;;;18.20;28.10;;;;;;2267875;61;20409;-62
2022/12/20 10:06:32;0.00;0.00;0.62;0.00;0.00;0.62;8.10;6.53;;;18.10;28.20;;;;;;2268853;61;20378;-64
2022/12/20 10:09:39;0.00;0.00;0.62;0.00;0.00;0.62;8.93;6.30;;;18.10;28.30;;;;;;2268967;61;20398;-64
2022/12/20 10:12:33;0.00;0.00;0.62;0.00;0.00;0.62;8.53;5.70;;;18.10;28.30;;;;;;2264601;61;20401;-69
2022/12/20 10:15:21;0.00;0.00;0.62;0.00;0.00;0.62;6.27;5.60;;;18.00;28.40;;;;;;2268886;61;20384;-68
2022/12/20 10:18:27;0.00;0.00;0.62;0.00;0.00;0.62;7.90;5.53;;;18.10;28.60;;;;;;2268070;61;20413;-65
2022/12/20 10:21:24;0.00;0.00;0.62;0.00;0.00;0.62;6.23;4.77;;;18.00;28.60;;;;;;2268966;61;20930;-65
2022/12/20 10:24:16;0.00;0.00;0.62;0.00;0.00;0.62;5.30;4.80;;;18.10;28.70;;;;;;2268868;61;20391;-70
2022/12/20 10:27:13;0.00;0.00;0.62;0.00;0.00;0.62;6.50;5.60;;;18.10;28.70;;;;;;2268146;61;20411;-70
2022/12/20 10:29:57;0.00;0.00;0.62;0.00;0.00;0.62;9.10;5.30;;;18.10;28.60;;;;;;2268915;61;20356;-67
2022/12/20 10:32:45;0.00;0.00;0.62;0.00;0.00;0.62;5.70;4.73;;;18.20;28.70;;;;;;2267720;61;20366;-68
2022/12/20 10:35:36;0.00;0.00;0.62;0.00;0.00;0.62;5.87;4.47;;;18.20;29.20;;;;;;2268740;61;20380;-66
2022/12/20 10:38:23;0.00;0.00;0.62;0.00;0.00;0.62;5.60;4.57;;;18.20;28.70;;;;;;2265526;61;20954;-68
2022/12/20 10:41:15;0.00;0.00;0.62;0.00;0.00;0.62;4.77;4.10;;;18.30;28.60;;;;;;2267760;61;20375;-63
2022/12/20 10:44:04;0.00;0.00;0.62;0.00;0.00;0.62;5.43;3.93;;;18.30;28.60;;;;;;2268582;61;20464;-66
2022/12/20 10:46:53;0.00;0.00;0.62;0.00;0.00;0.62;5.00;4.50;;;18.40;28.50;;;;;;2268461;61;20356;-65
2022/12/20 10:49:41;0.00;0.00;0.62;0.00;0.00;0.62;5.23;4.70;;;18.40;28.50;;;;;;2268057;61;20417;-67
2022/12/20 10:52:26;0.00;0.00;0.62;0.00;0.00;0.62;6.00;4.60;;;18.40;28.40;;;;;;2268684;61;20402;-65
2022/12/20 10:55:34;0.00;0.00;0.62;0.00;0.00;0.62;5.67;4.20;;;18.50;28.50;;;;;;2268076;61;20411;-63
2022/12/20 10:58:32;0.00;0.00;0.62;0.00;0.00;0.62;4.50;3.30;;;18.50;28.40;;;;;;2268813;61;20379;-67
2022/12/20 11:01:20;0.00;0.00;0.62;0.00;0.00;0.62;4.60;3.80;;;18.60;28.50;;;;;;2268759;61;20422;-62
2022/12/20 11:04:23;0.00;0.00;0.62;0.00;0.00;0.62;3.83;3.23;;;18.60;28.40;;;;;;2268017;61;20386;-66
2022/12/20 11:07:24;0.00;0.00;0.62;0.00;0.00;0.62;3.87;3.17;;;18.60;28.20;;;;;;2268805;61;20367;-63
2022/12/20 11:10:20;0.00;0.00;0.62;0.00;0.00;0.62;3.40;3.07;;;18.70;28.20;;;;;;2267874;61;20343;-65
2022/12/20 11:13:20;0.00;0.00;0.62;0.00;0.00;0.62;3.80;3.07;;;18.70;28.00;;;;;;2268595;61;20371;-63